Time;durP1;ratioP1;P1;durP2;ratioP2;P2;SDS_P1;SDS_P2;PMS_P1;PMS_P2;Temp;Humidity;BMP_temperature;BMP_pressure;BME280_temperature;BME280_humidity;BME280_pressure;Samples;Min_cycle;Max_cycle;Signal;HPM_P1;HPM_P2
2021/09/17 00:01:42;;;;;;;22.92;6.82;;;24.70;94.30;;;;;;5033746;28;20025;-48
2021/09/17 00:04:08;;;;;;;16.15;6.13;;;24.70;94.40;;;;;;4982607;28;20113;-49
2021/09/17 00:06:34;;;;;;;24.88;6.47;;;24.60;94.70;;;;;;5015263;28;20044;-49
2021/09/17 00:09:00;;;;;;;18.75;6.60;;;24.40;94.20;;;;;;5015438;28;20480;-48
2021/09/17 00:11:25;;;;;;;28.23;8.68;;;24.30;94.70;;;;;;5033474;28;20052;-48
2021/09/17 00:13:51;;;;;;;35.83;13.25;;;24.30;94.60;;;;;;5033615;28;20044;-49
2021/09/17 00:16:17;;;;;;;27.15;12.32;;;24.30;94.60;;;;;;5033411;28;20032;-49
2021/09/17 00:18:43;;;;;;;27.13;14.07;;;24.40;94.50;;;;;;5033705;28;20066;-49
2021/09/17 00:21:08;;;;;;;31.15;14.48;;;24.40;94.20;;;;;;5015113;28;20037;-49
2021/09/17 00:23:34;;;;;;;25.90;12.77;;;24.30;94.40;;;;;;5033429;28;20029;-49
2021/09/17 00:26:00;;;;;;;25.65;12.45;;;24.00;95.00;;;;;;5033531;28;20040;-48
2021/09/17 00:28:26;;;;;;;29.13;12.32;;;23.90;95.40;;;;;;5011478;28;20096;-49
2021/09/17 00:30:51;;;;;;;28.42;13.02;;;23.90;95.60;;;;;;5011507;28;20029;-49
2021/09/17 00:33:17;;;;;;;27.98;12.65;;;23.60;95.80;;;;;;5011272;28;20038;-48
2021/09/17 00:35:43;;;;;;;29.20;10.63;;;23.50;97.10;;;;;;5011473;28;20034;-48
2021/09/17 00:38:09;;;;;;;21.40;10.43;;;23.60;97.30;;;;;;4978932;28;20069;-49
2021/09/17 00:40:35;;;;;;;24.45;10.15;;;23.60;97.20;;;;;;5011393;28;20022;-48
2021/09/17 00:43:00;;;;;;;28.67;11.20;;;23.50;97.30;;;;;;5011080;28;20069;-48
2021/09/17 00:45:26;;;;;;;21.98;9.50;;;23.50;97.40;;;;;;5011566;28;20038;-49
2021/09/17 00:47:52;;;;;;;22.95;10.15;;;23.40;97.60;;;;;;4978749;28;20474;-48
2021/09/17 00:50:20;;;;;;;24.73;9.80;;;23.60;97.30;;;;;;5011347;28;20437;-48
2021/09/17 00:52:47;;;;;;;26.67;9.60;;;23.70;97.10;;;;;;5011165;28;20042;-48
2021/09/17 00:55:13;;;;;;;26.83;11.18;;;23.80;97.10;;;;;;5011283;28;20038;-49
2021/09/17 00:57:40;;;;;;;29.15;9.60;;;23.90;97.20;;;;;;4978988;28;20030;-48
2021/09/17 01:00:09;;;;;;;33.05;10.32;;;23.90;97.40;;;;;;5028336;28;20485;-48
2021/09/17 01:02:34;;;;;;;20.92;9.23;;;23.80;97.30;;;;;;4978921;28;20394;-48
2021/09/17 01:05:01;;;;;;;27.98;9.63;;;23.90;97.20;;;;;;4978736;28;20041;-48
2021/09/17 01:07:26;;;;;;;25.13;8.55;;;23.80;97.40;;;;;;5011113;28;20053;-49
2021/09/17 01:09:53;;;;;;;25.08;9.80;;;23.80;97.20;;;;;;5011145;28;20026;-49
2021/09/17 01:12:20;;;;;;;20.90;8.82;;;23.80;97.30;;;;;;5011092;28;20038;-49
2021/09/17 01:14:46;;;;;;;19.65;7.70;;;23.80;97.20;;;;;;4978628;28;20653;-48
2021/09/17 01:17:13;;;;;;;22.33;8.63;;;23.60;97.40;;;;;;5011095;28;20058;-49
2021/09/17 01:19:39;;;;;;;29.05;8.45;;;23.30;97.90;;;;;;5012761;28;20037;-48
2021/09/17 01:22:09;;;;;;;24.88;8.88;;;23.10;98.50;;;;;;4982317;28;20038;-48
2021/09/17 01:24:36;;;;;;;24.80;9.43;;;23.00;99.10;;;;;;5014697;28;20030;-49
2021/09/17 01:27:03;;;;;;;24.40;9.07;;;23.00;99.50;;;;;;5012223;28;20034;-49
2021/09/17 01:29:29;;;;;;;24.27;9.60;;;23.00;99.60;;;;;;5014584;28;20036;-48
2021/09/17 01:31:55;;;;;;;25.77;9.10;;;22.80;99.90;;;;;;5014677;28;20037;-48
2021/09/17 01:34:23;;;;;;;26.38;9.77;;;22.70;99.90;;;;;;5032587;28;20050;-48
2021/09/17 01:36:50;;;;;;;24.60;8.07;;;22.60;99.90;;;;;;5018110;28;20034;-48
2021/09/17 01:39:17;;;;;;;23.65;8.90;;;;;;;;;;5036465;28;20022;-48
2021/09/17 01:41:44;;;;;;;20.35;8.70;;;22.20;99.90;;;;;;5036388;28;20056;-48
2021/09/17 01:44:10;;;;;;;23.90;9.85;;;;;;;;;;5036262;28;20121;-48
2021/09/17 01:46:36;;;;;;;21.70;8.63;;;;;;;;;;5036338;28;20030;-48
2021/09/17 01:49:02;;;;;;;23.85;8.80;;;;;;;;;;5036219;28;20040;-48
2021/09/17 01:51:29;;;;;;;28.83;8.90;;;;;;;;;;5036235;28;20037;-49
2021/09/17 01:53:56;;;;;;;25.65;9.40;;;;;;;;;;5036385;28;20128;-49
2021/09/17 01:56:23;;;;;;;22.25;9.48;;;;;;;;;;5036605;28;20454;-48
2021/09/17 01:58:49;;;;;;;20.38;8.48;;;;;;;;;;5036128;28;20495;-48
2021/09/17 02:01:15;;;;;;;19.88;8.85;;;21.90;99.90;;;;;;5036088;28;20457;-48
2021/09/17 02:03:41;;;;;;;27.40;9.13;;;;;;;;;;5036096;28;20168;-48
2021/09/17 02:06:07;;;;;;;24.42;9.32;;;21.60;94.70;;;;;;5035862;28;20026;-48
2021/09/17 02:08:33;;;;;;;22.88;9.30;;;21.60;94.90;;;;;;5017294;28;20056;-48
2021/09/17 02:10:58;;;;;;;30.30;8.95;;;21.70;94.90;;;;;;4984834;28;20036;-48
2021/09/17 02:13:24;;;;;;;24.17;9.27;;;21.60;95.10;;;;;;4985053;28;20404;-48
2021/09/17 02:15:52;;;;;;;18.17;7.18;;;21.70;95.00;;;;;;5035738;28;20084;-48
2021/09/17 02:18:20;;;;;;;23.42;7.55;;;21.70;95.10;;;;;;5035639;28;20032;-48
2021/09/17 02:20:46;;;;;;;23.02;8.48;;;21.50;95.40;;;;;;5035618;28;20083;-48
2021/09/17 02:23:13;;;;;;;21.92;8.00;;;21.40;95.80;;;;;;5017328;28;20485;-48
2021/09/17 02:25:39;;;;;;;20.90;7.30;;;21.50;95.50;;;;;;5035556;28;20681;-48
2021/09/17 02:28:05;;;;;;;21.67;7.45;;;21.60;95.30;;;;;;5035699;28;20529;-48
2021/09/17 02:30:31;;;;;;;20.98;8.80;;;21.70;95.20;;;;;;5017270;28;20038;-48
2021/09/17 02:32:57;;;;;;;23.48;7.57;;;21.70;95.10;;;;;;5017085;28;20496;-48
2021/09/17 02:35:23;;;;;;;24.10;9.00;;;21.70;95.10;;;;;;5035466;28;20033;-48
2021/09/17 02:37:49;;;;;;;14.75;6.05;;;21.80;94.80;;;;;;5035261;28;20057;-48
2021/09/17 02:40:16;;;;;;;22.15;6.78;;;21.90;94.50;;;;;;5035343;28;20113;-48
2021/09/17 02:42:43;;;;;;;22.70;8.10;;;22.00;94.30;;;;;;5035177;28;20046;-48
2021/09/17 02:45:10;;;;;;;23.10;7.57;;;22.10;94.30;;;;;;5034871;28;20028;-48
2021/09/17 02:47:37;;;;;;;23.48;8.07;;;22.10;94.20;;;;;;5017285;28;20041;-48
2021/09/17 02:50:04;;;;;;;22.15;7.82;;;22.10;94.20;;;;;;5035139;28;20017;-48
2021/09/17 02:52:30;;;;;;;27.02;7.40;;;22.10;94.20;;;;;;5016940;28;20033;-48
2021/09/17 02:54:56;;;;;;;24.95;7.90;;;22.00;94.30;;;;;;5034887;28;20040;-48
2021/09/17 02:57:22;;;;;;;22.02;7.82;;;21.90;94.60;;;;;;5035174;28;20100;-48
2021/09/17 02:59:48;;;;;;;26.88;8.35;;;22.00;94.70;;;;;;5034977;28;20031;-48
2021/09/17 03:02:14;;;;;;;29.92;8.50;;;22.00;94.80;;;;;;5034859;28;20443;-49
2021/09/17 03:04:40;;;;;;;21.40;7.55;;;22.00;94.70;;;;;;5016390;28;20037;-48
2021/09/17 03:07:06;;;;;;;19.45;7.88;;;22.00;94.80;;;;;;5034686;28;20036;-48
2021/09/17 03:09:32;;;;;;;25.15;7.68;;;21.70;95.30;;;;;;5034788;28;20029;-48
2021/09/17 03:11:58;;;;;;;25.80;8.82;;;21.60;95.80;;;;;;4983869;28;20037;-48
2021/09/17 03:14:24;;;;;;;21.23;7.85;;;21.60;96.00;;;;;;5034832;28;20052;-49
2021/09/17 03:16:50;;;;;;;25.27;8.65;;;21.60;96.10;;;;;;5015961;28;20480;-49
2021/09/17 03:19:16;;;;;;;24.30;9.48;;;21.40;96.70;;;;;;5034707;28;20036;-47
2021/09/17 03:21:42;;;;;;;21.33;7.50;;;21.30;96.90;;;;;;5034513;28;20032;-48
2021/09/17 03:24:08;;;;;;;23.60;8.43;;;21.20;97.30;;;;;;5034442;28;20093;-47
2021/09/17 03:26:34;;;;;;;23.27;8.32;;;21.30;97.50;;;;;;5032269;28;20041;-48
2021/09/17 03:29:00;;;;;;;27.33;8.63;;;21.40;97.40;;;;;;5016289;28;20042;-48
2021/09/17 03:31:26;;;;;;;22.20;8.07;;;21.60;97.00;;;;;;5034230;28;20037;-50
2021/09/17 03:33:52;;;;;;;25.00;8.38;;;21.60;96.60;;;;;;5034231;28;20034;-49
2021/09/17 03:36:18;;;;;;;24.60;8.18;;;21.70;96.50;;;;;;5034370;28;20053;-49
2021/09/17 03:38:44;;;;;;;26.90;8.75;;;21.80;96.20;;;;;;5034209;28;20134;-49
2021/09/17 03:41:10;;;;;;;26.10;8.57;;;21.70;96.50;;;;;;5034189;28;20029;-49
2021/09/17 03:43:36;;;;;;;21.77;8.60;;;21.70;96.70;;;;;;4982247;28;20428;-49
2021/09/17 03:46:01;;;;;;;20.67;8.35;;;21.70;97.00;;;;;;4983251;28;20465;-49
2021/09/17 03:48:28;;;;;;;21.05;8.40;;;21.70;97.20;;;;;;5034522;28;20376;-49
2021/09/17 03:50:54;;;;;;;21.67;8.32;;;21.80;97.80;;;;;;5033902;28;20025;-49
2021/09/17 03:53:19;;;;;;;26.10;8.38;;;21.70;97.70;;;;;;5034375;28;20034;-49
2021/09/17 03:55:45;;;;;;;18.77;8.88;;;21.80;97.50;;;;;;5033874;28;20041;-49
2021/09/17 03:58:12;;;;;;;27.13;9.95;;;22.00;97.30;;;;;;5033929;28;20076;-48
2021/09/17 04:16:58;;;;;;;26.73;9.13;;;;;;;;;;5090806;28;20860;-48
2021/09/17 04:19:23;;;;;;;25.27;9.27;;;21.90;99.90;;;;;;5091128;28;20025;-48
2021/09/17 04:21:49;;;;;;;24.80;9.13;;;21.90;99.90;;;;;;5055518;28;20091;-49
2021/09/17 04:24:15;;;;;;;25.30;8.52;;;21.80;99.90;;;;;;5090749;28;20024;-48
2021/09/17 04:26:41;;;;;;;22.50;9.27;;;21.80;99.90;;;;;;5040851;28;20040;-48
2021/09/17 04:29:06;;;;;;;19.92;8.05;;;21.70;96.80;;;;;;5070756;28;20420;-48
2021/09/17 04:31:32;;;;;;;26.90;7.75;;;21.70;96.60;;;;;;5021236;28;20094;-47
2021/09/17 04:33:58;;;;;;;20.63;7.13;;;21.70;96.70;;;;;;5070581;28;20029;-47
2021/09/17 04:36:24;;;;;;;20.35;7.22;;;21.70;96.30;;;;;;5075359;28;20028;-48
2021/09/17 04:38:50;;;;;;;24.40;8.25;;;21.50;96.40;;;;;;5075230;28;20422;-48
2021/09/17 04:41:16;;;;;;;24.02;7.65;;;21.60;96.40;;;;;;5073407;28;20031;-49
2021/09/17 04:43:42;;;;;;;22.60;7.53;;;21.60;96.30;;;;;;5090622;28;20101;-48
2021/09/17 04:46:08;;;;;;;24.65;7.82;;;21.70;95.80;;;;;;5090297;28;20032;-48
2021/09/17 04:48:33;;;;;;;18.58;6.53;;;21.80;95.80;;;;;;5090281;28;20426;-47
2021/09/17 04:50:59;;;;;;;18.02;7.53;;;21.70;95.70;;;;;;5054798;28;20033;-47
2021/09/17 04:53:25;;;;;;;21.23;7.63;;;21.70;95.70;;;;;;5087069;28;20044;-49
2021/09/17 04:55:51;;;;;;;24.48;7.72;;;21.70;95.50;;;;;;5068887;28;20455;-48
2021/09/17 04:58:17;;;;;;;22.67;6.85;;;21.70;95.90;;;;;;5050796;28;20032;-49
2021/09/17 05:00:43;;;;;;;18.15;7.97;;;21.60;95.90;;;;;;5069176;28;20023;-48
2021/09/17 05:03:08;;;;;;;22.42;9.25;;;21.70;95.90;;;;;;5017635;28;20431;-47
2021/09/17 05:05:34;;;;;;;22.95;9.07;;;21.70;96.30;;;;;;5069179;28;20047;-49
2021/09/17 05:08:00;;;;;;;25.98;9.02;;;21.60;96.80;;;;;;5069121;28;20483;-48
2021/09/17 05:10:26;;;;;;;29.38;9.40;;;21.50;97.20;;;;;;5069154;28;20024;-48
2021/09/17 05:12:52;;;;;;;22.95;10.65;;;21.50;97.60;;;;;;5066194;28;20464;-48
2021/09/17 05:15:18;;;;;;;19.33;9.73;;;21.50;97.50;;;;;;5068705;28;20045;-47
2021/09/17 05:17:44;;;;;;;24.30;9.45;;;21.60;97.60;;;;;;5057409;28;20025;-49
2021/09/17 05:20:11;;;;;;;21.55;8.05;;;21.70;97.30;;;;;;5021079;28;20037;-46
2021/09/17 05:22:37;;;;;;;19.17;7.85;;;21.80;96.60;;;;;;5004126;28;20040;-50
2021/09/17 05:25:03;;;;;;;23.00;9.48;;;21.90;96.00;;;;;;5020454;28;20480;-47
2021/09/17 05:27:29;;;;;;;24.63;8.90;;;22.20;96.20;;;;;;4987408;28;20541;-46
2021/09/17 05:29:55;;;;;;;25.25;10.02;;;22.40;96.10;;;;;;5020451;28;20158;-47
2021/09/17 05:32:21;;;;;;;20.58;7.47;;;22.60;95.60;;;;;;5002744;28;20025;-47
2021/09/17 05:34:48;;;;;;;26.17;9.65;;;22.70;95.70;;;;;;5020457;28;20434;-45
2021/09/17 05:37:14;;;;;;;33.05;8.82;;;23.00;95.60;;;;;;5053069;28;20356;-49
2021/09/17 05:39:40;;;;;;;23.17;8.77;;;23.10;95.20;;;;;;5003840;28;20114;-48
2021/09/17 05:42:06;;;;;;;27.63;7.70;;;23.30;94.60;;;;;;4965479;28;20080;-49
2021/09/17 05:44:31;;;;;;;19.10;7.03;;;23.50;94.30;;;;;;5054764;28;20041;-46
2021/09/17 05:46:57;;;;;;;24.92;7.80;;;23.60;93.90;;;;;;5055574;28;20037;-49
2021/09/17 05:49:23;;;;;;;22.38;7.78;;;23.80;93.70;;;;;;5053918;28;20029;-51
2021/09/17 05:51:49;;;;;;;25.35;7.30;;;23.90;92.80;;;;;;5054694;28;20468;-49
2021/09/17 05:54:15;;;;;;;26.73;7.43;;;24.00;92.80;;;;;;5054903;28;20536;-48
2021/09/17 05:56:41;;;;;;;25.83;7.72;;;24.30;92.60;;;;;;5052545;28;20109;-48
2021/09/17 05:59:06;;;;;;;20.50;7.03;;;24.50;91.90;;;;;;5054978;28;20403;-49
2021/09/17 06:01:32;;;;;;;32.28;8.52;;;24.50;92.00;;;;;;5054922;28;20146;-48
2021/09/17 06:03:58;;;;;;;23.13;7.38;;;24.60;92.00;;;;;;5019879;28;20037;-48
2021/09/17 06:06:24;;;;;;;24.85;7.65;;;24.60;92.00;;;;;;5054824;28;20075;-49
2021/09/17 06:08:50;;;;;;;26.33;7.95;;;24.40;92.30;;;;;;5055083;28;20418;-49
2021/09/17 06:11:17;;;;;;;28.75;7.30;;;24.20;92.30;;;;;;5054700;28;20029;-48
2021/09/17 06:13:43;;;;;;;16.70;6.85;;;24.10;92.60;;;;;;5054748;28;20025;-49
2021/09/17 06:16:09;;;;;;;22.60;7.32;;;24.10;92.30;;;;;;5054324;28;20052;-53
2021/09/17 06:18:34;;;;;;;29.67;8.35;;;24.00;92.40;;;;;;5054701;28;20112;-48
2021/09/17 06:21:00;;;;;;;24.52;7.75;;;24.30;92.30;;;;;;5054496;28;20075;-48
2021/09/17 06:23:27;;;;;;;28.63;9.65;;;24.40;92.40;;;;;;5054425;28;20036;-47
2021/09/17 06:25:56;;;;;;;23.55;7.97;;;24.20;92.40;;;;;;5019034;28;20431;-46
2021/09/17 06:28:25;;;;;;;37.50;9.13;;;24.20;92.80;;;;;;5033934;28;20473;-49
2021/09/17 06:30:52;;;;;;;23.80;8.23;;;24.30;93.00;;;;;;5035086;28;20380;-49
2021/09/17 06:33:18;;;;;;;26.35;7.40;;;24.30;93.00;;;;;;5000087;28;20057;-49
2021/09/17 06:35:45;;;;;;;24.92;8.38;;;24.30;93.00;;;;;;4983874;28;20037;-49
2021/09/17 06:38:11;;;;;;;26.55;8.27;;;24.40;92.70;;;;;;5034952;28;20014;-49
2021/09/17 06:40:37;;;;;;;24.77;8.25;;;24.70;92.60;;;;;;5044189;28;20472;-49
2021/09/17 06:43:03;;;;;;;26.65;10.02;;;24.90;92.40;;;;;;5002881;28;20128;-49
2021/09/17 06:45:29;;;;;;;19.98;8.65;;;25.30;92.20;;;;;;5053999;28;20128;-48
2021/09/17 06:47:58;;;;;;;34.75;11.50;;;25.60;91.60;;;;;;5053933;28;20012;-49
2021/09/17 06:50:26;;;;;;;24.00;10.18;;;25.60;91.70;;;;;;5051214;28;20369;-49
2021/09/17 06:52:53;;;;;;;22.42;9.65;;;25.60;91.00;;;;;;5054258;28;20033;-48
2021/09/17 06:55:30;;;;;;;33.35;10.15;;;25.70;90.80;;;;;;5054510;28;20040;-45
2021/09/17 06:58:01;;;;;;;27.83;9.85;;;25.80;90.90;;;;;;5054646;28;20087;-49
2021/09/17 07:00:29;;;;;;;23.95;9.93;;;25.90;90.90;;;;;;5054322;28;20511;-48
2021/09/17 07:02:56;;;;;;;28.60;10.45;;;25.90;90.80;;;;;;4959307;28;20081;-49
2021/09/17 07:05:24;;;;;;;21.95;8.05;;;25.90;90.90;;;;;;4992546;28;20242;-49
2021/09/17 07:07:50;;;;;;;25.52;9.43;;;25.90;90.40;;;;;;4992967;28;20042;-49
2021/09/17 07:10:19;;;;;;;30.20;9.40;;;25.80;90.30;;;;;;4953933;28;20039;-49
2021/09/17 07:12:46;;;;;;;25.50;9.55;;;25.80;90.70;;;;;;4960051;28;20034;-49
2021/09/17 07:15:12;;;;;;;25.98;8.45;;;26.10;90.50;;;;;;4965204;28;20054;-49
2021/09/17 07:17:39;;;;;;;22.00;7.97;;;26.40;90.00;;;;;;4954075;28;20047;-49
2021/09/17 07:20:05;;;;;;;26.13;8.93;;;26.30;90.00;;;;;;4961413;28;20486;-48
2021/09/17 07:22:31;;;;;;;23.52;9.52;;;26.10;89.40;;;;;;4908182;28;20039;-48
2021/09/17 07:24:58;;;;;;;24.27;9.98;;;26.00;89.60;;;;;;4911158;28;20399;-48
2021/09/17 07:27:23;;;;;;;23.70;9.23;;;26.10;90.30;;;;;;4945741;28;20177;-48
2021/09/17 07:29:49;;;;;;;30.58;8.55;;;26.20;89.40;;;;;;4966989;28;20043;-49
2021/09/17 07:32:15;;;;;;;38.78;8.55;;;26.30;88.60;;;;;;4930192;28;20503;-48
2021/09/17 07:34:41;;;;;;;28.40;8.52;;;26.50;88.80;;;;;;5002066;28;20034;-49
2021/09/17 07:37:08;;;;;;;29.58;9.07;;;26.60;89.00;;;;;;4959586;28;20038;-49
2021/09/17 07:39:34;;;;;;;36.47;13.63;;;26.60;87.80;;;;;;4960186;28;20054;-49
2021/09/17 07:42:00;;;;;;;29.13;10.23;;;26.70;87.50;;;;;;5025672;28;20033;-48
2021/09/17 07:44:26;;;;;;;32.22;10.65;;;26.80;87.40;;;;;;5033942;28;20026;-49
2021/09/17 07:46:52;;;;;;;36.40;12.95;;;27.00;87.30;;;;;;5002233;28;20088;-47
2021/09/17 07:49:17;;;;;;;35.92;15.70;;;26.90;86.70;;;;;;5018036;28;20092;-47
2021/09/17 07:51:43;;;;;;;32.65;12.25;;;26.70;87.00;;;;;;5018850;28;20033;-48
2021/09/17 07:54:09;;;;;;;30.65;9.90;;;26.50;86.50;;;;;;5053496;28;20048;-49
2021/09/17 07:56:35;;;;;;;25.90;9.07;;;26.40;87.50;;;;;;5053649;28;20067;-48
2021/09/17 07:59:00;;;;;;;30.73;8.13;;;26.30;88.20;;;;;;5035116;28;20496;-48
2021/09/17 08:01:26;;;;;;;23.73;9.48;;;26.30;88.20;;;;;;5053700;28;20024;-47
2021/09/17 08:03:52;;;;;;;20.35;8.50;;;26.30;87.60;;;;;;5053713;28;20025;-46
2021/09/17 08:06:19;;;;;;;29.02;9.60;;;26.30;87.80;;;;;;5054509;28;20119;-46
2021/09/17 08:08:45;;;;;;;33.50;10.10;;;26.20;87.70;;;;;;5053378;28;20529;-46
2021/09/17 08:11:11;;;;;;;30.70;10.85;;;26.20;87.60;;;;;;5053473;28;20051;-47
2021/09/17 08:13:37;;;;;;;24.20;9.60;;;26.30;88.30;;;;;;5053398;28;20036;-46
2021/09/17 08:16:02;;;;;;;30.75;11.63;;;26.40;88.20;;;;;;5052947;28;20446;-47
2021/09/17 08:18:28;;;;;;;34.33;12.23;;;26.40;88.80;;;;;;5018667;28;20052;-47
2021/09/17 08:20:57;;;;;;;29.75;9.73;;;26.60;89.30;;;;;;4986494;28;20375;-47
2021/09/17 08:23:24;;;;;;;34.10;15.43;;;26.70;86.90;;;;;;5053179;28;20021;-48
2021/09/17 08:25:51;;;;;;;34.00;14.48;;;26.70;88.20;;;;;;5052004;28;20079;-48
2021/09/17 08:28:19;;;;;;;30.90;11.00;;;26.90;87.70;;;;;;5053285;28;20039;-47
2021/09/17 08:30:44;;;;;;;40.45;12.40;;;27.10;86.90;;;;;;5053444;28;20123;-51
2021/09/17 08:33:10;;;;;;;32.10;12.45;;;27.30;86.00;;;;;;5053211;28;20529;-51
2021/09/17 08:35:36;;;;;;;29.52;13.00;;;27.50;85.80;;;;;;5053033;28;20029;-51
2021/09/17 08:38:02;;;;;;;27.88;9.88;;;27.80;85.10;;;;;;5053110;28;20040;-50
2021/09/17 08:40:28;;;;;;;27.45;9.65;;;27.90;83.50;;;;;;5034750;28;20033;-51
2021/09/17 08:42:59;;;;;;;29.95;9.07;;;28.10;83.70;;;;;;5053086;28;20063;-50
2021/09/17 08:45:25;;;;;;;23.90;8.23;;;28.10;83.00;;;;;;5052934;28;20484;-49
2021/09/17 08:47:51;;;;;;;25.83;7.88;;;28.30;82.40;;;;;;5052954;28;20075;-51
2021/09/17 08:50:18;;;;;;;21.23;7.32;;;;;;;;;;5035077;28;20120;-50
2021/09/17 08:52:45;;;;;;;28.42;8.45;;;;;;;;;;5054018;28;20037;-48
2021/09/17 08:55:11;;;;;;;19.10;7.90;;;;;;;;;;5056683;28;20033;-49
2021/09/17 08:57:37;;;;;;;18.00;6.45;;;29.80;96.40;;;;;;5014610;28;20033;-49
2021/09/17 09:00:04;;;;;;;18.02;6.70;;;;;;;;;;4956958;28;20396;-49
2021/09/17 09:02:30;;;;;;;18.23;6.60;;;29.90;96.00;;;;;;5005844;28;20111;-49
2021/09/17 09:04:56;;;;;;;22.83;7.60;;;29.80;75.20;;;;;;5005222;28;20484;-48
2021/09/17 09:07:35;;;;;;;12.60;6.57;;;29.70;74.30;;;;;;5056718;28;20060;-51
2021/09/17 09:44:39;;;;;;;18.75;6.60;;;29.40;71.60;;;;;;5021155;27;1383288;-50
2021/09/17 09:47:04;;;;;;;20.95;7.47;;;29.00;72.10;;;;;;5047488;28;20034;-50
2021/09/17 09:49:30;;;;;;;18.85;7.10;;;29.10;73.50;;;;;;5116449;28;20030;-52
2021/09/17 09:52:06;;;;;;;14.65;7.45;;;28.90;71.70;;;;;;5081697;28;20082;-50
2021/09/17 09:54:32;;;;;;;16.77;6.35;;;29.20;74.80;;;;;;5047588;28;20494;-51
2021/09/17 09:57:00;;;;;;;21.10;7.32;;;29.40;71.80;;;;;;5046904;28;20109;-53
2021/09/17 09:59:37;;;;;;;15.05;6.30;;;29.50;71.90;;;;;;5047187;28;20070;-50
2021/09/17 10:02:05;;;;;;;13.68;6.90;;;29.70;70.40;;;;;;4996404;28;20396;-51
2021/09/17 10:04:33;;;;;;;20.60;7.70;;;29.50;70.60;;;;;;5046696;28;20029;-51
2021/09/17 10:07:08;;;;;;;13.32;6.45;;;29.40;71.50;;;;;;5010959;28;20040;-52
2021/09/17 10:09:36;;;;;;;15.63;7.03;;;29.40;71.10;;;;;;4992878;28;20083;-52
2021/09/17 10:12:04;;;;;;;17.52;7.38;;;29.40;71.90;;;;;;5028031;28;20385;-49
2021/09/17 10:14:30;;;;;;;15.82;6.32;;;29.30;71.70;;;;;;5090951;28;20365;-53
2021/09/17 10:17:02;;;;;;;16.83;6.80;;;29.40;71.00;;;;;;5046731;28;20153;-51
2021/09/17 10:19:28;;;;;;;21.33;6.78;;;29.50;70.50;;;;;;5046400;28;20026;-51
2021/09/17 10:21:56;;;;;;;22.17;7.18;;;;;;;;;;5025244;28;20042;-52
2021/09/17 10:24:39;;;;;;;12.85;6.25;;;30.50;69.70;;;;;;4985205;28;20132;-51
2021/09/17 10:27:05;;;;;;;15.98;6.07;;;;;;;;;;4973556;28;20038;-52
2021/09/17 10:29:41;;;;;;;18.30;6.20;;;31.00;76.30;;;;;;5032952;28;20069;-50
2021/09/17 10:32:27;;;;;;;21.30;6.53;;;30.80;71.70;;;;;;4989671;28;20022;-52
2021/09/17 10:35:12;;;;;;;14.40;5.50;;;;;;;;;;4993316;28;20061;-52
2021/09/17 10:37:57;;;;;;;18.42;6.50;;;31.10;73.90;;;;;;4969885;28;20027;-54
2021/09/17 10:40:49;;;;;;;15.93;5.80;;;31.00;73.40;;;;;;4983464;28;20042;-51
2021/09/17 10:43:17;;;;;;;13.15;6.28;;;30.80;67.80;;;;;;4985054;28;20486;-51
2021/09/17 10:45:51;;;;;;;11.27;5.82;;;30.70;66.40;;;;;;5022553;28;20035;-54
2021/09/17 10:48:24;;;;;;;13.57;5.90;;;30.50;66.00;;;;;;4989577;28;20475;-54
2021/09/17 10:50:58;;;;;;;14.15;5.97;;;30.60;66.50;;;;;;4968018;28;20469;-51
2021/09/17 10:53:43;;;;;;;12.32;5.75;;;30.60;66.00;;;;;;4921360;29;20039;-51
2021/09/17 10:56:15;;;;;;;17.42;6.25;;;30.50;65.80;;;;;;4986524;28;20066;-53
2021/09/17 10:58:46;;;;;;;15.10;6.70;;;30.40;65.90;;;;;;4993577;28;20566;-50
2021/09/17 11:01:16;;;;;;;12.18;6.22;;;30.40;66.00;;;;;;4993772;28;20031;-51
2021/09/17 11:03:45;;;;;;;12.48;5.47;;;30.40;66.30;;;;;;4993565;28;20034;-52
2021/09/17 11:06:24;;;;;;;12.25;5.90;;;30.30;67.30;;;;;;4993497;28;20072;-51
2021/09/17 11:09:02;;;;;;;13.93;5.97;;;30.20;68.00;;;;;;4993683;28;20058;-54
2021/09/17 11:11:38;;;;;;;19.92;6.10;;;30.10;69.00;;;;;;4993418;28;20023;-52
2021/09/17 11:14:06;;;;;;;16.98;6.80;;;30.10;71.20;;;;;;4993583;28;20034;-52
2021/09/17 11:16:33;;;;;;;15.95;5.70;;;30.20;73.00;;;;;;4993296;28;20426;-52
2021/09/17 11:19:04;;;;;;;16.70;5.80;;;30.20;70.00;;;;;;4993498;28;20030;-51
2021/09/17 11:21:35;;;;;;;18.13;6.43;;;30.10;70.60;;;;;;4993648;28;20524;-52
2021/09/17 11:24:02;;;;;;;12.53;6.30;;;30.20;70.80;;;;;;4993606;28;20041;-51
2021/09/17 11:26:30;;;;;;;14.70;5.70;;;30.20;71.90;;;;;;4993158;28;20602;-52
2021/09/17 11:29:13;;;;;;;13.98;5.65;;;30.20;70.30;;;;;;4993103;28;20026;-53
2021/09/17 11:31:48;;;;;;;13.95;6.22;;;30.10;69.50;;;;;;4993401;28;20048;-52
2021/09/17 11:34:16;;;;;;;12.23;5.63;;;30.20;70.80;;;;;;4992932;28;20026;-52
2021/09/17 11:36:43;;;;;;;10.55;5.95;;;30.10;69.00;;;;;;4993327;28;20026;-52
2021/09/17 11:39:36;;;;;;;11.80;5.75;;;30.10;69.30;;;;;;4993027;28;20061;-51
2021/09/17 11:42:07;;;;;;;15.68;5.88;;;30.20;69.20;;;;;;4933279;29;20052;-51
2021/09/17 11:44:48;;;;;;;13.73;5.55;;;30.20;70.20;;;;;;4933105;28;20062;-52
2021/09/17 11:47:32;;;;;;;13.25;5.80;;;30.20;70.10;;;;;;4932967;28;20039;-52
2021/09/17 11:50:08;;;;;;;14.55;6.35;;;30.10;69.30;;;;;;4933040;28;20043;-50
2021/09/17 11:52:43;;;;;;;15.57;5.97;;;30.00;68.90;;;;;;4932825;28;20043;-52
2021/09/17 11:55:13;;;;;;;20.60;6.70;;;29.90;68.20;;;;;;4930119;28;20073;-53
2021/09/17 11:57:41;;;;;;;12.75;6.10;;;29.90;67.40;;;;;;4981778;28;20039;-53
2021/09/17 12:00:10;;;;;;;14.02;5.78;;;29.80;68.00;;;;;;4933190;29;20487;-53
2021/09/17 12:02:36;;;;;;;19.80;6.80;;;29.80;69.00;;;;;;4993740;28;20039;-50
2021/09/17 12:05:07;;;;;;;16.55;6.60;;;29.90;68.90;;;;;;4993465;28;20038;-53
2021/09/17 12:07:34;;;;;;;19.77;7.40;;;29.90;68.90;;;;;;4961189;28;20038;-51
2021/09/17 12:10:09;;;;;;;15.32;10.18;;;29.80;69.00;;;;;;4977307;28;20034;-53
2021/09/17 12:12:38;;;;;;;18.20;7.22;;;29.80;69.30;;;;;;4993224;28;20031;-51
2021/09/17 12:15:06;;;;;;;14.65;6.70;;;29.90;68.70;;;;;;4977282;28;20031;-50
2021/09/17 12:17:32;;;;;;;15.85;7.57;;;29.90;68.50;;;;;;4993191;28;20035;-53
2021/09/17 12:19:59;;;;;;;14.57;7.00;;;29.80;68.00;;;;;;5046370;28;20111;-52
2021/09/17 12:22:35;;;;;;;13.57;6.05;;;29.80;68.10;;;;;;5002901;28;20055;-50
2021/09/17 12:25:29;;;;;;;15.60;6.70;;;29.80;68.20;;;;;;5026022;28;20055;-51
2021/09/17 12:28:03;;;;;;;16.75;7.25;;;29.90;68.10;;;;;;5071509;28;20037;-53
2021/09/17 12:30:33;;;;;;;18.08;7.28;;;29.90;68.10;;;;;;5071303;28;20027;-53
2021/09/17 12:33:10;;;;;;;20.58;7.45;;;29.90;68.10;;;;;;5062840;28;20037;-52
2021/09/17 12:35:39;;;;;;;17.58;6.75;;;29.80;67.70;;;;;;5032691;28;20557;-53
2021/09/17 12:38:06;;;;;;;21.17;7.55;;;29.70;68.20;;;;;;5005698;28;20042;-53
2021/09/17 12:40:37;;;;;;;19.60;7.15;;;29.80;69.70;;;;;;5069598;28;20040;-53
2021/09/17 12:43:04;;;;;;;15.53;7.97;;;29.80;67.80;;;;;;5079316;28;20055;-52
2021/09/17 12:45:32;;;;;;;20.50;7.75;;;29.70;68.80;;;;;;5079191;28;20032;-50
2021/09/17 12:48:00;;;;;;;18.20;6.75;;;29.70;69.20;;;;;;5080028;28;20033;-52
2021/09/17 12:50:28;;;;;;;19.30;6.53;;;29.90;70.30;;;;;;5079344;28;20032;-52
2021/09/17 12:52:54;;;;;;;19.55;7.38;;;29.80;69.70;;;;;;5079160;28;20036;-51
2021/09/17 12:55:31;;;;;;;14.10;6.55;;;29.90;69.50;;;;;;5079373;28;20026;-50
2021/09/17 12:58:02;;;;;;;20.00;7.20;;;30.20;69.90;;;;;;5045600;28;20503;-53
2021/09/17 13:00:31;;;;;;;17.08;6.75;;;30.20;69.60;;;;;;5079975;28;20475;-52
2021/09/17 13:02:56;;;;;;;34.38;7.63;;;30.20;68.40;;;;;;5062293;28;20078;-52
2021/09/17 13:05:22;;;;;;;18.77;6.38;;;30.30;68.60;;;;;;5069538;28;20024;-51
2021/09/17 13:07:48;;;;;;;17.75;6.75;;;30.30;68.00;;;;;;5040957;28;20124;-51
2021/09/17 13:10:14;;;;;;;18.70;7.38;;;30.10;68.80;;;;;;5091683;28;20028;-50
2021/09/17 13:12:40;;;;;;;22.05;6.65;;;29.90;69.60;;;;;;5077615;28;20040;-52
2021/09/17 13:15:06;;;;;;;21.65;9.05;;;29.70;69.40;;;;;;5090863;28;20028;-51
2021/09/17 13:17:32;;;;;;;22.67;8.57;;;29.50;73.20;;;;;;5045544;28;20490;-53
2021/09/17 13:19:58;;;;;;;19.55;7.80;;;29.40;70.20;;;;;;5088722;28;20031;-52
2021/09/17 13:22:24;;;;;;;16.60;7.00;;;29.10;71.40;;;;;;5091563;28;20501;-53
2021/09/17 13:24:50;;;;;;;21.02;7.00;;;29.10;72.70;;;;;;5089741;28;20035;-52
2021/09/17 13:27:16;;;;;;;14.02;6.07;;;;;;;;;;5044877;28;20028;-52
2021/09/17 13:29:43;;;;;;;18.20;5.43;;;;;;;;;;5091676;28;20027;-52
2021/09/17 13:32:09;;;;;;;13.30;5.30;;;;;;;;;;5091458;28;20028;-51
2021/09/17 13:34:35;;;;;;;18.25;5.47;;;27.50;99.90;;;;;;5088012;28;20052;-52
2021/09/17 13:37:01;;;;;;;13.32;4.78;;;27.50;92.30;;;;;;5087252;28;20128;-50